sensor_id;sensor_type;location;lat;lon;timestamp;temperature;humidity
61591;DHT22;57639;52.410;-1.966;2023-04-25T00:01:46;15.50;52.20
61591;DHT22;57639;52.410;-1.966;2023-04-25T00:04:52;15.50;52.20
61591;DHT22;57639;52.410;-1.966;2023-04-25T00:08:04;15.50;52.20
61591;DHT22;57639;52.410;-1.966;2023-04-25T00:11:10;15.50;52.20
61591;DHT22;57639;52.410;-1.966;2023-04-25T00:14:16;15.50;52.20
61591;DHT22;57639;52.410;-1.966;2023-04-25T00:17:23;15.50;52.20
61591;DHT22;57639;52.410;-1.966;2023-04-25T00:20:29;15.50;52.10
61591;DHT22;57639;52.410;-1.966;2023-04-25T00:23:38;15.40;52.20
61591;DHT22;57639;52.410;-1.966;2023-04-25T00:26:45;15.50;52.00
61591;DHT22;57639;52.410;-1.966;2023-04-25T00:29:54;15.40;52.00
61591;DHT22;57639;52.410;-1.966;2023-04-25T00:33:00;15.40;52.00
61591;DHT22;57639;52.410;-1.966;2023-04-25T00:36:07;15.40;51.90
61591;DHT22;57639;52.410;-1.966;2023-04-25T00:39:17;15.40;51.90
61591;DHT22;57639;52.410;-1.966;2023-04-25T00:42:23;15.30;51.90
61591;DHT22;57639;52.410;-1.966;2023-04-25T00:45:30;15.30;51.80
61591;DHT22;57639;52.410;-1.966;2023-04-25T00:48:36;15.40;51.80
61591;DHT22;57639;52.410;-1.966;2023-04-25T00:51:43;15.30;51.90
61591;DHT22;57639;52.410;-1.966;2023-04-25T00:54:52;15.30;51.90
61591;DHT22;57639;52.410;-1.966;2023-04-25T00:57:59;15.30;51.80
61591;DHT22;57639;52.410;-1.966;2023-04-25T01:01:06;15.30;51.80
61591;DHT22;57639;52.410;-1.966;2023-04-25T01:04:13;15.30;51.80
61591;DHT22;57639;52.410;-1.966;2023-04-25T01:07:19;15.30;51.80
61591;DHT22;57639;52.410;-1.966;2023-04-25T01:10:29;15.30;51.80
61591;DHT22;57639;52.410;-1.966;2023-04-25T01:13:35;15.30;51.80
61591;DHT22;57639;52.410;-1.966;2023-04-25T01:16:42;15.20;51.80
61591;DHT22;57639;52.410;-1.966;2023-04-25T01:19:49;15.20;51.80
61591;DHT22;57639;52.410;-1.966;2023-04-25T01:22:58;15.20;51.80
61591;DHT22;57639;52.410;-1.966;2023-04-25T01:26:06;15.10;51.80
61591;DHT22;57639;52.410;-1.966;2023-04-25T01:29:12;15.10;51.80
61591;DHT22;57639;52.410;-1.966;2023-04-25T01:32:18;15.10;51.80
61591;DHT22;57639;52.410;-1.966;2023-04-25T01:35:25;15.10;51.80
61591;DHT22;57639;52.410;-1.966;2023-04-25T01:38:35;15.10;51.80
61591;DHT22;57639;52.410;-1.966;2023-04-25T01:41:41;15.10;51.80
61591;DHT22;57639;52.410;-1.966;2023-04-25T01:44:47;15.10;51.80
61591;DHT22;57639;52.410;-1.966;2023-04-25T01:47:54;15.10;51.80
61591;DHT22;57639;52.410;-1.966;2023-04-25T01:51:02;15.00;51.80
61591;DHT22;57639;52.410;-1.966;2023-04-25T01:54:12;15.00;51.80
61591;DHT22;57639;52.410;-1.966;2023-04-25T01:57:19;15.00;51.80
61591;DHT22;57639;52.410;-1.966;2023-04-25T02:00:25;15.00;51.80
61591;DHT22;57639;52.410;-1.966;2023-04-25T02:03:32;15.00;51.80
61591;DHT22;57639;52.410;-1.966;2023-04-25T02:06:39;14.90;51.80
61591;DHT22;57639;52.410;-1.966;2023-04-25T02:09:48;14.90;51.70
61591;DHT22;57639;52.410;-1.966;2023-04-25T02:12:54;14.90;51.70
61591;DHT22;57639;52.410;-1.966;2023-04-25T02:16:00;14.90;51.80
61591;DHT22;57639;52.410;-1.966;2023-04-25T02:19:07;14.90;51.70
61591;DHT22;57639;52.410;-1.966;2023-04-25T02:22:13;14.90;51.70
61591;DHT22;57639;52.410;-1.966;2023-04-25T02:25:22;14.90;51.80
61591;DHT22;57639;52.410;-1.966;2023-04-25T02:28:29;14.80;51.70
61591;DHT22;57639;52.410;-1.966;2023-04-25T02:31:35;14.80;51.70
61591;DHT22;57639;52.410;-1.966;2023-04-25T02:34:42;14.80;51.70
61591;DHT22;57639;52.410;-1.966;2023-04-25T02:37:48;14.80;51.70
61591;DHT22;57639;52.410;-1.966;2023-04-25T02:40:57;14.80;51.60
61591;DHT22;57639;52.410;-1.966;2023-04-25T02:44:03;14.80;51.60
61591;DHT22;57639;52.410;-1.966;2023-04-25T02:47:09;14.80;51.60
61591;DHT22;57639;52.410;-1.966;2023-04-25T02:50:15;14.80;51.50
61591;DHT22;57639;52.410;-1.966;2023-04-25T02:53:22;14.80;51.50
61591;DHT22;57639;52.410;-1.966;2023-04-25T02:56:31;14.80;51.50
61591;DHT22;57639;52.410;-1.966;2023-04-25T02:59:37;14.80;51.40
61591;DHT22;57639;52.410;-1.966;2023-04-25T03:02:43;14.80;51.40
61591;DHT22;57639;52.410;-1.966;2023-04-25T03:05:50;14.80;51.40
61591;DHT22;57639;52.410;-1.966;2023-04-25T03:08:56;14.80;51.40
61591;DHT22;57639;52.410;-1.966;2023-04-25T03:12:06;14.70;51.30
61591;DHT22;57639;52.410;-1.966;2023-04-25T03:15:12;14.70;51.30
61591;DHT22;57639;52.410;-1.966;2023-04-25T03:18:32;14.70;51.30
61591;DHT22;57639;52.410;-1.966;2023-04-25T03:21:54;14.70;51.40
61591;DHT22;57639;52.410;-1.966;2023-04-25T03:25:17;14.70;51.40
61591;DHT22;57639;52.410;-1.966;2023-04-25T03:28:43;14.60;51.40
61591;DHT22;57639;52.410;-1.966;2023-04-25T03:32:06;14.60;51.40
61591;DHT22;57639;52.410;-1.966;2023-04-25T03:35:28;14.60;51.40
61591;DHT22;57639;52.410;-1.966;2023-04-25T03:38:51;14.60;51.40
61591;DHT22;57639;52.410;-1.966;2023-04-25T03:42:13;14.60;51.40
61591;DHT22;57639;52.410;-1.966;2023-04-25T03:45:39;14.50;51.50
61591;DHT22;57639;52.410;-1.966;2023-04-25T03:49:01;14.50;51.50
61591;DHT22;57639;52.410;-1.966;2023-04-25T03:52:24;14.50;51.40
61591;DHT22;57639;52.410;-1.966;2023-04-25T03:55:47;14.50;51.40
61591;DHT22;57639;52.410;-1.966;2023-04-25T03:59:09;14.50;51.50
61591;DHT22;57639;52.410;-1.966;2023-04-25T04:02:35;14.50;51.40
61591;DHT22;57639;52.410;-1.966;2023-04-25T04:05:58;14.40;51.40
61591;DHT22;57639;52.410;-1.966;2023-04-25T04:09:20;14.40;51.40
61591;DHT22;57639;52.410;-1.966;2023-04-25T04:12:43;14.40;51.40
61591;DHT22;57639;52.410;-1.966;2023-04-25T04:16:06;14.40;51.50
61591;DHT22;57639;52.410;-1.966;2023-04-25T04:19:32;14.40;51.40
61591;DHT22;57639;52.410;-1.966;2023-04-25T04:22:54;14.40;51.40
61591;DHT22;57639;52.410;-1.966;2023-04-25T04:26:17;14.30;51.40
61591;DHT22;57639;52.410;-1.966;2023-04-25T04:29:42;14.30;51.40
61591;DHT22;57639;52.410;-1.966;2023-04-25T04:33:05;14.30;51.40
61591;DHT22;57639;52.410;-1.966;2023-04-25T04:36:32;14.30;51.30
61591;DHT22;57639;52.410;-1.966;2023-04-25T04:39:55;14.30;51.40
61591;DHT22;57639;52.410;-1.966;2023-04-25T04:43:18;14.20;51.40
61591;DHT22;57639;52.410;-1.966;2023-04-25T04:46:42;14.30;51.30
61591;DHT22;57639;52.410;-1.966;2023-04-25T04:50:06;14.20;51.30
61591;DHT22;57639;52.410;-1.966;2023-04-25T04:53:32;14.20;51.30
61591;DHT22;57639;52.410;-1.966;2023-04-25T04:56:54;14.20;51.30
61591;DHT22;57639;52.410;-1.966;2023-04-25T05:00:18;14.20;51.20
61591;DHT22;57639;52.410;-1.966;2023-04-25T05:03:41;14.20;51.20
61591;DHT22;57639;52.410;-1.966;2023-04-25T05:07:03;14.20;51.20
61591;DHT22;57639;52.410;-1.966;2023-04-25T05:10:29;14.20;51.10
61591;DHT22;57639;52.410;-1.966;2023-04-25T05:13:52;14.20;50.90
61591;DHT22;57639;52.410;-1.966;2023-04-25T05:17:15;14.20;50.90
61591;DHT22;57639;52.410;-1.966;2023-04-25T05:20:38;14.20;50.80
61591;DHT22;57639;52.410;-1.966;2023-04-25T05:24:00;14.20;50.70
61591;DHT22;57639;52.410;-1.966;2023-04-25T05:27:26;14.20;50.80
61591;DHT22;57639;52.410;-1.966;2023-04-25T05:30:49;14.20;50.80
61591;DHT22;57639;52.410;-1.966;2023-04-25T05:34:12;14.20;50.50
61591;DHT22;57639;52.410;-1.966;2023-04-25T05:37:36;14.20;50.60
61591;DHT22;57639;52.410;-1.966;2023-04-25T05:40:58;14.20;50.70
61591;DHT22;57639;52.410;-1.966;2023-04-25T05:44:23;14.10;50.90
61591;DHT22;57639;52.410;-1.966;2023-04-25T05:47:46;14.10;50.80
61591;DHT22;57639;52.410;-1.966;2023-04-25T05:51:09;14.20;50.90
61591;DHT22;57639;52.410;-1.966;2023-04-25T05:54:31;14.10;50.80
61591;DHT22;57639;52.410;-1.966;2023-04-25T05:57:54;14.10;50.70
61591;DHT22;57639;52.410;-1.966;2023-04-25T06:01:19;14.10;50.80
61591;DHT22;57639;52.410;-1.966;2023-04-25T06:04:42;14.10;50.90
61591;DHT22;57639;52.410;-1.966;2023-04-25T06:08:04;14.20;50.90
61591;DHT22;57639;52.410;-1.966;2023-04-25T06:11:27;14.20;50.30
61591;DHT22;57639;52.410;-1.966;2023-04-25T06:14:50;14.20;50.70
61591;DHT22;57639;52.410;-1.966;2023-04-25T06:18:15;14.30;50.40
61591;DHT22;57639;52.410;-1.966;2023-04-25T06:21:38;14.40;50.00
61591;DHT22;57639;52.410;-1.966;2023-04-25T06:25:01;14.70;50.00
61591;DHT22;57639;52.410;-1.966;2023-04-25T06:28:24;14.90;49.50
61591;DHT22;57639;52.410;-1.966;2023-04-25T06:31:47;15.10;49.30
61591;DHT22;57639;52.410;-1.966;2023-04-25T06:35:12;15.40;48.90
61591;DHT22;57639;52.410;-1.966;2023-04-25T06:38:35;15.60;48.80
61591;DHT22;57639;52.410;-1.966;2023-04-25T06:41:57;15.90;48.50
61591;DHT22;57639;52.410;-1.966;2023-04-25T06:45:20;16.10;48.20
61591;DHT22;57639;52.410;-1.966;2023-04-25T06:48:43;16.30;48.10
61591;DHT22;57639;52.410;-1.966;2023-04-25T06:52:08;16.50;47.80
61591;DHT22;57639;52.410;-1.966;2023-04-25T06:55:31;16.60;47.60
61591;DHT22;57639;52.410;-1.966;2023-04-25T06:58:54;16.80;47.40
61591;DHT22;57639;52.410;-1.966;2023-04-25T07:02:16;16.90;47.30
61591;DHT22;57639;52.410;-1.966;2023-04-25T07:05:40;17.10;47.10
61591;DHT22;57639;52.410;-1.966;2023-04-25T07:09:08;17.10;46.90
61591;DHT22;57639;52.410;-1.966;2023-04-25T07:12:31;17.20;46.90
61591;DHT22;57639;52.410;-1.966;2023-04-25T07:15:54;17.30;47.00
61591;DHT22;57639;52.410;-1.966;2023-04-25T07:19:16;17.40;47.00
61591;DHT22;57639;52.410;-1.966;2023-04-25T07:22:39;17.40;46.80
61591;DHT22;57639;52.410;-1.966;2023-04-25T07:26:05;17.40;46.80
61591;DHT22;57639;52.410;-1.966;2023-04-25T07:29:28;17.40;46.80
61591;DHT22;57639;52.410;-1.966;2023-04-25T07:32:51;17.40;46.80
61591;DHT22;57639;52.410;-1.966;2023-04-25T07:36:13;17.40;46.80
61591;DHT22;57639;52.410;-1.966;2023-04-25T07:39:36;17.30;46.80
61591;DHT22;57639;52.410;-1.966;2023-04-25T07:43:02;17.20;46.90
61591;DHT22;57639;52.410;-1.966;2023-04-25T07:46:25;17.20;46.90
61591;DHT22;57639;52.410;-1.966;2023-04-25T07:49:47;17.20;46.90
61591;DHT22;57639;52.410;-1.966;2023-04-25T07:53:10;17.10;47.00
61591;DHT22;57639;52.410;-1.966;2023-04-25T07:56:33;17.10;47.10
61591;DHT22;57639;52.410;-1.966;2023-04-25T07:59:59;17.00;47.30
61591;DHT22;57639;52.410;-1.966;2023-04-25T08:03:21;17.00;47.50
61591;DHT22;57639;52.410;-1.966;2023-04-25T08:06:44;16.90;47.60
61591;DHT22;57639;52.410;-1.966;2023-04-25T08:10:08;16.80;47.70
61591;DHT22;57639;52.410;-1.966;2023-04-25T08:13:31;16.70;47.80
61591;DHT22;57639;52.410;-1.966;2023-04-25T08:16:57;16.70;47.70
61591;DHT22;57639;52.410;-1.966;2023-04-25T08:20:20;16.60;47.80
61591;DHT22;57639;52.410;-1.966;2023-04-25T08:23:42;16.60;47.80
61591;DHT22;57639;52.410;-1.966;2023-04-25T08:27:05;16.50;47.90
61591;DHT22;57639;52.410;-1.966;2023-04-25T08:30:27;16.50;48.10
61591;DHT22;57639;52.410;-1.966;2023-04-25T08:33:53;16.50;48.00
61591;DHT22;57639;52.410;-1.966;2023-04-25T08:37:16;16.40;48.10
61591;DHT22;57639;52.410;-1.966;2023-04-25T08:40:39;16.40;48.20
61591;DHT22;57639;52.410;-1.966;2023-04-25T08:44:03;16.30;48.10
61591;DHT22;57639;52.410;-1.966;2023-04-25T08:47:28;16.30;48.30
61591;DHT22;57639;52.410;-1.966;2023-04-25T08:50:56;16.30;48.40
61591;DHT22;57639;52.410;-1.966;2023-04-25T08:54:20;16.30;48.40
61591;DHT22;57639;52.410;-1.966;2023-04-25T08:57:45;16.20;48.40
61591;DHT22;57639;52.410;-1.966;2023-04-25T09:01:08;16.20;48.50
61591;DHT22;57639;52.410;-1.966;2023-04-25T09:04:33;16.20;48.40
61591;DHT22;57639;52.410;-1.966;2023-04-25T09:08:02;16.10;48.50
61591;DHT22;57639;52.410;-1.966;2023-04-25T09:11:25;16.10;48.40
61591;DHT22;57639;52.410;-1.966;2023-04-25T09:14:35;16.10;48.60
61591;DHT22;57639;52.410;-1.966;2023-04-25T09:17:44;16.10;48.70
61591;DHT22;57639;52.410;-1.966;2023-04-25T09:20:51;16.10;48.60
61591;DHT22;57639;52.410;-1.966;2023-04-25T09:24:02;16.10;48.70
61591;DHT22;57639;52.410;-1.966;2023-04-25T09:27:11;16.00;48.60
61591;DHT22;57639;52.410;-1.966;2023-04-25T09:30:17;16.00;48.60
61591;DHT22;57639;52.410;-1.966;2023-04-25T09:33:31;15.90;48.70
61591;DHT22;57639;52.410;-1.966;2023-04-25T09:36:39;15.90;48.70
61591;DHT22;57639;52.410;-1.966;2023-04-25T09:39:49;15.80;48.70
61591;DHT22;57639;52.410;-1.966;2023-04-25T09:42:55;15.80;48.80
61591;DHT22;57639;52.410;-1.966;2023-04-25T09:46:02;15.80;48.80
61591;DHT22;57639;52.410;-1.966;2023-04-25T09:49:10;15.70;48.90
61591;DHT22;57639;52.410;-1.966;2023-04-25T09:52:18;15.80;49.00
61591;DHT22;57639;52.410;-1.966;2023-04-25T09:55:27;15.70;49.00
61591;DHT22;57639;52.410;-1.966;2023-04-25T09:58:34;15.70;49.00
61591;DHT22;57639;52.410;-1.966;2023-04-25T10:01:43;15.70;49.10
61591;DHT22;57639;52.410;-1.966;2023-04-25T10:04:52;15.70;49.10
61591;DHT22;57639;52.410;-1.966;2023-04-25T10:08:00;15.70;49.10
61591;DHT22;57639;52.410;-1.966;2023-04-25T10:11:11;15.70;49.10
61591;DHT22;57639;52.410;-1.966;2023-04-25T10:14:19;15.70;49.10
61591;DHT22;57639;52.410;-1.966;2023-04-25T10:17:27;15.70;49.00
61591;DHT22;57639;52.410;-1.966;2023-04-25T10:20:34;15.60;49.00
61591;DHT22;57639;52.410;-1.966;2023-04-25T10:23:43;15.60;49.00
61591;DHT22;57639;52.410;-1.966;2023-04-25T10:26:53;15.60;49.10
61591;DHT22;57639;52.410;-1.966;2023-04-25T10:30:03;15.60;49.20
61591;DHT22;57639;52.410;-1.966;2023-04-25T10:33:17;15.60;49.30
61591;DHT22;57639;52.410;-1.966;2023-04-25T10:36:24;15.60;49.40
61591;DHT22;57639;52.410;-1.966;2023-04-25T10:39:32;15.60;49.30
61591;DHT22;57639;52.410;-1.966;2023-04-25T10:42:43;15.60;49.40
61591;DHT22;57639;52.410;-1.966;2023-04-25T10:45:51;15.50;49.40
61591;DHT22;57639;52.410;-1.966;2023-04-25T10:48:59;15.50;49.40
61591;DHT22;57639;52.410;-1.966;2023-04-25T10:52:27;15.50;49.40
61591;DHT22;57639;52.410;-1.966;2023-04-25T10:55:49;15.50;49.40
61591;DHT22;57639;52.410;-1.966;2023-04-25T10:59:12;15.50;49.50
61591;DHT22;57639;52.410;-1.966;2023-04-25T11:02:19;15.50;49.50
61591;DHT22;57639;52.410;-1.966;2023-04-25T11:05:31;15.50;49.50
61591;DHT22;57639;52.410;-1.966;2023-04-25T11:08:46;15.50;49.40
61591;DHT22;57639;52.410;-1.966;2023-04-25T11:11:54;15.50;49.40
61591;DHT22;57639;52.410;-1.966;2023-04-25T11:15:07;15.60;49.60
61591;DHT22;57639;52.410;-1.966;2023-04-25T11:18:16;15.60;49.50
61591;DHT22;57639;52.410;-1.966;2023-04-25T11:21:24;15.80;49.30
61591;DHT22;57639;52.410;-1.966;2023-04-25T11:24:32;15.90;48.90
61591;DHT22;57639;52.410;-1.966;2023-04-25T11:27:49;16.10;48.60
61591;DHT22;57639;52.410;-1.966;2023-04-25T11:30:59;16.50;48.20
61591;DHT22;57639;52.410;-1.966;2023-04-25T11:34:05;16.70;47.80
61591;DHT22;57639;52.410;-1.966;2023-04-25T11:37:11;17.00;47.40
61591;DHT22;57639;52.410;-1.966;2023-04-25T11:40:18;17.10;47.00
61591;DHT22;57639;52.410;-1.966;2023-04-25T11:43:25;17.30;46.60
61591;DHT22;57639;52.410;-1.966;2023-04-25T11:46:36;17.60;46.20
61591;DHT22;57639;52.410;-1.966;2023-04-25T11:49:43;17.70;46.00
61591;DHT22;57639;52.410;-1.966;2023-04-25T11:52:49;17.90;45.60
61591;DHT22;57639;52.410;-1.966;2023-04-25T11:55:56;18.00;45.40
61591;DHT22;57639;52.410;-1.966;2023-04-25T11:59:04;18.10;45.20
61591;DHT22;57639;52.410;-1.966;2023-04-25T12:02:24;18.30;45.00
61591;DHT22;57639;52.410;-1.966;2023-04-25T12:05:31;18.30;44.80
61591;DHT22;57639;52.410;-1.966;2023-04-25T12:08:38;18.40;44.70
61591;DHT22;57639;52.410;-1.966;2023-04-25T12:11:46;18.40;44.60
61591;DHT22;57639;52.410;-1.966;2023-04-25T12:14:52;18.40;44.80
61591;DHT22;57639;52.410;-1.966;2023-04-25T12:18:02;18.30;44.70
61591;DHT22;57639;52.410;-1.966;2023-04-25T12:21:09;18.30;44.80
61591;DHT22;57639;52.410;-1.966;2023-04-25T12:24:16;18.30;44.80
61591;DHT22;57639;52.410;-1.966;2023-04-25T12:27:25;18.20;44.90
61591;DHT22;57639;52.410;-1.966;2023-04-25T12:30:52;18.20;45.00
61591;DHT22;57639;52.410;-1.966;2023-04-25T12:34:02;18.10;45.00
61591;DHT22;57639;52.410;-1.966;2023-04-25T12:37:08;18.10;45.10
61591;DHT22;57639;52.410;-1.966;2023-04-25T12:40:14;18.00;45.40
61591;DHT22;57639;52.410;-1.966;2023-04-25T12:43:21;17.90;45.70
61591;DHT22;57639;52.410;-1.966;2023-04-25T12:46:28;17.80;45.80
61591;DHT22;57639;52.410;-1.966;2023-04-25T12:49:37;17.80;45.90
61591;DHT22;57639;52.410;-1.966;2023-04-25T12:52:43;17.70;45.90
61591;DHT22;57639;52.410;-1.966;2023-04-25T12:55:50;17.60;46.20
61591;DHT22;57639;52.410;-1.966;2023-04-25T12:58:56;17.60;46.40
61591;DHT22;57639;52.410;-1.966;2023-04-25T13:02:02;17.50;46.60
61591;DHT22;57639;52.410;-1.966;2023-04-25T13:05:12;17.50;46.50
61591;DHT22;57639;52.410;-1.966;2023-04-25T13:08:18;17.40;46.70
61591;DHT22;57639;52.410;-1.966;2023-04-25T13:11:24;17.40;46.80
61591;DHT22;57639;52.410;-1.966;2023-04-25T13:14:31;17.30;46.80
61591;DHT22;57639;52.410;-1.966;2023-04-25T13:17:37;17.30;46.70
61591;DHT22;57639;52.410;-1.966;2023-04-25T13:20:49;17.30;47.00
61591;DHT22;57639;52.410;-1.966;2023-04-25T13:23:55;17.20;46.90
61591;DHT22;57639;52.410;-1.966;2023-04-25T13:27:02;17.10;46.90
61591;DHT22;57639;52.410;-1.966;2023-04-25T13:30:12;17.10;46.90
61591;DHT22;57639;52.410;-1.966;2023-04-25T13:33:18;17.10;47.00
61591;DHT22;57639;52.410;-1.966;2023-04-25T13:36:28;17.10;47.00
61591;DHT22;57639;52.410;-1.966;2023-04-25T13:39:34;17.00;47.10
61591;DHT22;57639;52.410;-1.966;2023-04-25T13:42:43;17.00;47.10
61591;DHT22;57639;52.410;-1.966;2023-04-25T13:45:50;17.00;47.20
61591;DHT22;57639;52.410;-1.966;2023-04-25T13:49:01;16.90;47.20
61591;DHT22;57639;52.410;-1.966;2023-04-25T13:52:10;16.90;47.30
61591;DHT22;57639;52.410;-1.966;2023-04-25T13:55:19;16.80;47.20
61591;DHT22;57639;52.410;-1.966;2023-04-25T13:58:25;16.80;47.20
61591;DHT22;57639;52.410;-1.966;2023-04-25T14:01:31;16.80;47.30
61591;DHT22;57639;52.410;-1.966;2023-04-25T14:04:40;16.80;47.30
61591;DHT22;57639;52.410;-1.966;2023-04-25T14:07:49;16.80;47.40
61591;DHT22;57639;52.410;-1.966;2023-04-25T14:10:57;16.80;47.50
61591;DHT22;57639;52.410;-1.966;2023-04-25T14:14:04;16.80;47.40
61591;DHT22;57639;52.410;-1.966;2023-04-25T14:17:10;16.80;47.60
61591;DHT22;57639;52.410;-1.966;2023-04-25T14:20:17;16.70;47.60
61591;DHT22;57639;52.410;-1.966;2023-04-25T14:23:27;16.70;47.80
61591;DHT22;57639;52.410;-1.966;2023-04-25T14:26:33;16.70;47.70
61591;DHT22;57639;52.410;-1.966;2023-04-25T14:29:40;16.70;47.80
61591;DHT22;57639;52.410;-1.966;2023-04-25T14:32:50;16.70;47.90
61591;DHT22;57639;52.410;-1.966;2023-04-25T14:35:56;16.70;47.70
61591;DHT22;57639;52.410;-1.966;2023-04-25T14:39:07;16.60;47.80
61591;DHT22;57639;52.410;-1.966;2023-04-25T14:42:13;16.60;47.80
61591;DHT22;57639;52.410;-1.966;2023-04-25T14:45:20;16.60;47.90
61591;DHT22;57639;52.410;-1.966;2023-04-25T14:48:27;16.60;47.90
61591;DHT22;57639;52.410;-1.966;2023-04-25T14:51:34;16.60;47.90
61591;DHT22;57639;52.410;-1.966;2023-04-25T14:54:44;16.60;48.00
61591;DHT22;57639;52.410;-1.966;2023-04-25T14:57:50;16.60;47.90
61591;DHT22;57639;52.410;-1.966;2023-04-25T15:00:58;16.60;47.90
61591;DHT22;57639;52.410;-1.966;2023-04-25T15:04:08;16.60;48.00
61591;DHT22;57639;52.410;-1.966;2023-04-25T15:07:15;16.60;48.00
61591;DHT22;57639;52.410;-1.966;2023-04-25T15:10:24;16.60;48.00
61591;DHT22;57639;52.410;-1.966;2023-04-25T15:13:31;16.60;48.20
61591;DHT22;57639;52.410;-1.966;2023-04-25T15:16:37;16.50;48.20
61591;DHT22;57639;52.410;-1.966;2023-04-25T15:19:44;16.50;48.20
61591;DHT22;57639;52.410;-1.966;2023-04-25T15:22:50;16.50;48.30
61591;DHT22;57639;52.410;-1.966;2023-04-25T15:26:00;16.50;48.40
61591;DHT22;57639;52.410;-1.966;2023-04-25T15:29:09;16.50;48.40
61591;DHT22;57639;52.410;-1.966;2023-04-25T15:32:18;16.50;48.50
61591;DHT22;57639;52.410;-1.966;2023-04-25T15:35:25;16.50;48.40
61591;DHT22;57639;52.410;-1.966;2023-04-25T15:38:33;16.50;48.40
61591;DHT22;57639;52.410;-1.966;2023-04-25T15:41:44;16.40;48.50
61591;DHT22;57639;52.410;-1.966;2023-04-25T15:44:51;16.50;48.50
61591;DHT22;57639;52.410;-1.966;2023-04-25T15:47:57;16.40;48.60
61591;DHT22;57639;52.410;-1.966;2023-04-25T15:51:04;16.40;48.60
61591;DHT22;57639;52.410;-1.966;2023-04-25T15:54:10;16.40;48.60
61591;DHT22;57639;52.410;-1.966;2023-04-25T15:57:22;16.40;48.80
61591;DHT22;57639;52.410;-1.966;2023-04-25T16:00:30;16.40;48.80
61591;DHT22;57639;52.410;-1.966;2023-04-25T16:03:38;16.40;48.70
61591;DHT22;57639;52.410;-1.966;2023-04-25T16:06:44;16.30;48.70
61591;DHT22;57639;52.410;-1.966;2023-04-25T16:09:53;16.30;48.80
61591;DHT22;57639;52.410;-1.966;2023-04-25T16:13:04;16.30;48.80
61591;DHT22;57639;52.410;-1.966;2023-04-25T16:16:10;16.30;48.80
61591;DHT22;57639;52.410;-1.966;2023-04-25T16:19:16;16.30;48.80
61591;DHT22;57639;52.410;-1.966;2023-04-25T16:22:23;16.30;48.80
61591;DHT22;57639;52.410;-1.966;2023-04-25T16:25:29;16.30;48.80
61591;DHT22;57639;52.410;-1.966;2023-04-25T16:28:38;16.30;48.80
61591;DHT22;57639;52.410;-1.966;2023-04-25T16:31:44;16.30;48.80
61591;DHT22;57639;52.410;-1.966;2023-04-25T16:34:51;16.30;48.80
61591;DHT22;57639;52.410;-1.966;2023-04-25T16:37:57;16.30;48.80
61591;DHT22;57639;52.410;-1.966;2023-04-25T16:41:03;16.30;48.80
61591;DHT22;57639;52.410;-1.966;2023-04-25T16:44:13;16.30;48.70
61591;DHT22;57639;52.410;-1.966;2023-04-25T16:47:21;16.20;48.70
61591;DHT22;57639;52.410;-1.966;2023-04-25T16:50:30;16.30;48.60
61591;DHT22;57639;52.410;-1.966;2023-04-25T16:53:37;16.20;48.60
61591;DHT22;57639;52.410;-1.966;2023-04-25T16:56:43;16.20;48.60
61591;DHT22;57639;52.410;-1.966;2023-04-25T16:59:52;16.30;48.60
61591;DHT22;57639;52.410;-1.966;2023-04-25T17:02:58;16.20;48.50
61591;DHT22;57639;52.410;-1.966;2023-04-25T17:06:05;16.20;48.50
61591;DHT22;57639;52.410;-1.966;2023-04-25T17:09:11;16.20;48.50
61591;DHT22;57639;52.410;-1.966;2023-04-25T17:12:18;16.20;48.60
61591;DHT22;57639;52.410;-1.966;2023-04-25T17:15:27;16.30;48.80
61591;DHT22;57639;52.410;-1.966;2023-04-25T17:18:33;16.30;48.50
61591;DHT22;57639;52.410;-1.966;2023-04-25T17:21:46;16.50;48.30
61591;DHT22;57639;52.410;-1.966;2023-04-25T17:24:53;16.60;48.10
61591;DHT22;57639;52.410;-1.966;2023-04-25T17:27:59;16.80;47.90
61591;DHT22;57639;52.410;-1.966;2023-04-25T17:31:08;17.10;47.60
61591;DHT22;57639;52.410;-1.966;2023-04-25T17:34:15;17.30;47.50
61591;DHT22;57639;52.410;-1.966;2023-04-25T17:37:21;17.60;47.60
61591;DHT22;57639;52.410;-1.966;2023-04-25T17:40:30;17.70;47.10
61591;DHT22;57639;52.410;-1.966;2023-04-25T17:43:37;17.90;47.00
61591;DHT22;57639;52.410;-1.966;2023-04-25T17:46:46;18.10;46.70
61591;DHT22;57639;52.410;-1.966;2023-04-25T17:49:53;18.30;46.30
61591;DHT22;57639;52.410;-1.966;2023-04-25T17:52:59;18.50;46.00
61591;DHT22;57639;52.410;-1.966;2023-04-25T17:56:07;18.60;45.70
61591;DHT22;57639;52.410;-1.966;2023-04-25T17:59:13;18.70;45.60
61591;DHT22;57639;52.410;-1.966;2023-04-25T18:02:22;18.70;45.60
61591;DHT22;57639;52.410;-1.966;2023-04-25T18:05:29;18.80;45.80
61591;DHT22;57639;52.410;-1.966;2023-04-25T18:08:35;18.90;46.10
61591;DHT22;57639;52.410;-1.966;2023-04-25T18:11:44;18.90;46.40
61591;DHT22;57639;52.410;-1.966;2023-04-25T18:14:50;18.90;46.70
61591;DHT22;57639;52.410;-1.966;2023-04-25T18:17:59;19.00;47.30
61591;DHT22;57639;52.410;-1.966;2023-04-25T18:21:13;19.00;47.90
61591;DHT22;57639;52.410;-1.966;2023-04-25T18:24:20;19.00;48.20
61591;DHT22;57639;52.410;-1.966;2023-04-25T18:27:29;19.00;48.60
61591;DHT22;57639;52.410;-1.966;2023-04-25T18:30:35;18.90;49.10
61591;DHT22;57639;52.410;-1.966;2023-04-25T18:33:44;18.80;49.80
61591;DHT22;57639;52.410;-1.966;2023-04-25T18:36:50;18.80;50.70
61591;DHT22;57639;52.410;-1.966;2023-04-25T18:39:58;18.80;50.80
61591;DHT22;57639;52.410;-1.966;2023-04-25T18:43:08;18.80;51.10
61591;DHT22;57639;52.410;-1.966;2023-04-25T18:46:14;18.80;51.40
61591;DHT22;57639;52.410;-1.966;2023-04-25T18:49:27;18.80;51.70
61591;DHT22;57639;52.410;-1.966;2023-04-25T18:52:33;18.80;51.50
61591;DHT22;57639;52.410;-1.966;2023-04-25T18:55:56;18.80;51.20
61591;DHT22;57639;52.410;-1.966;2023-04-25T18:59:19;18.80;50.90
61591;DHT22;57639;52.410;-1.966;2023-04-25T19:02:42;18.70;50.60
61591;DHT22;57639;52.410;-1.966;2023-04-25T19:06:08;18.60;50.60
61591;DHT22;57639;52.410;-1.966;2023-04-25T19:09:31;18.60;50.50
61591;DHT22;57639;52.410;-1.966;2023-04-25T19:12:54;18.60;50.30
61591;DHT22;57639;52.410;-1.966;2023-04-25T19:16:17;18.60;50.20
61591;DHT22;57639;52.410;-1.966;2023-04-25T19:19:40;18.50;50.10
61591;DHT22;57639;52.410;-1.966;2023-04-25T19:23:06;18.50;49.80
61591;DHT22;57639;52.410;-1.966;2023-04-25T19:26:29;18.40;49.30
61591;DHT22;57639;52.410;-1.966;2023-04-25T19:29:52;18.30;49.20
61591;DHT22;57639;52.410;-1.966;2023-04-25T19:33:18;18.20;49.10
61591;DHT22;57639;52.410;-1.966;2023-04-25T19:36:41;18.20;49.20
61591;DHT22;57639;52.410;-1.966;2023-04-25T19:40:08;18.10;48.70
61591;DHT22;57639;52.410;-1.966;2023-04-25T19:43:31;18.00;48.70
61591;DHT22;57639;52.410;-1.966;2023-04-25T19:46:53;17.90;48.90
61591;DHT22;57639;52.410;-1.966;2023-04-25T19:50:17;17.90;48.50
61591;DHT22;57639;52.410;-1.966;2023-04-25T19:53:40;17.80;48.60
61591;DHT22;57639;52.410;-1.966;2023-04-25T19:57:05;17.80;48.60
61591;DHT22;57639;52.410;-1.966;2023-04-25T20:00:29;17.80;48.50